sensor_id;sensor_type;location;lat;lon;timestamp;pressure;altitude;pressure_sealevel;temperature;humidity
21633;BME280;48765;51.568;8.840;2022-10-31T00:03:12;98962.72;;;10.34;100.00
21633;BME280;48765;51.568;8.840;2022-10-31T00:05:40;98958.28;;;10.28;100.00
21633;BME280;48765;51.568;8.840;2022-10-31T00:08:07;98966.25;;;10.33;100.00
21633;BME280;48765;51.568;8.840;2022-10-31T00:10:36;98964.50;;;10.48;100.00
21633;BME280;48765;51.568;8.840;2022-10-31T00:13:03;98960.09;;;10.54;100.00
21633;BME280;48765;51.568;8.840;2022-10-31T00:15:31;98968.03;;;10.38;100.00
21633;BME280;48765;51.568;8.840;2022-10-31T00:17:59;98965.31;;;10.23;100.00
21633;BME280;48765;51.568;8.840;2022-10-31T00:20:28;98969.78;;;10.33;100.00
21633;BME280;48765;51.568;8.840;2022-10-31T00:22:56;98970.59;;;10.17;100.00
21633;BME280;48765;51.568;8.840;2022-10-31T00:25:23;98976.84;;;10.28;100.00
21633;BME280;48765;51.568;8.840;2022-10-31T00:27:50;98974.13;;;10.20;100.00
21633;BME280;48765;51.568;8.840;2022-10-31T00:30:17;98979.38;;;10.11;100.00
21633;BME280;48765;51.568;8.840;2022-10-31T00:32:44;98979.44;;;10.22;100.00
21633;BME280;48765;51.568;8.840;2022-10-31T00:35:11;98979.34;;;9.94;100.00
21633;BME280;48765;51.568;8.840;2022-10-31T00:37:39;98976.75;;;10.02;100.00
21633;BME280;48765;51.568;8.840;2022-10-31T00:40:06;98972.34;;;10.09;100.00
21633;BME280;48765;51.568;8.840;2022-10-31T00:42:33;98982.91;;;9.99;100.00
21633;BME280;48765;51.568;8.840;2022-10-31T00:45:00;98977.56;;;9.96;100.00
21633;BME280;48765;51.568;8.840;2022-10-31T00:47:27;98976.72;;;9.99;100.00
21633;BME280;48765;51.568;8.840;2022-10-31T00:49:53;98971.47;;;10.13;100.00
21633;BME280;48765;51.568;8.840;2022-10-31T00:52:20;98970.66;;;10.26;100.00
21633;BME280;48765;51.568;8.840;2022-10-31T00:54:48;98972.41;;;10.24;100.00
21633;BME280;48765;51.568;8.840;2022-10-31T00:57:15;98973.19;;;9.98;100.00
21633;BME280;48765;51.568;8.840;2022-10-31T00:59:42;98977.59;;;9.99;100.00
21633;BME280;48765;51.568;8.840;2022-10-31T01:02:09;98979.25;;;9.75;100.00
21633;BME280;48765;51.568;8.840;2022-10-31T01:04:36;98979.31;;;9.88;100.00
21633;BME280;48765;51.568;8.840;2022-10-31T01:07:02;98973.19;;;9.98;100.00
21633;BME280;48765;51.568;8.840;2022-10-31T01:09:29;98972.25;;;9.84;100.00
21633;BME280;48765;51.568;8.840;2022-10-31T01:11:57;98967.78;;;9.74;100.00
21633;BME280;48765;51.568;8.840;2022-10-31T01:14:24;98969.59;;;9.84;100.00
21633;BME280;48765;51.568;8.840;2022-10-31T01:16:51;98965.22;;;10.02;100.00
21633;BME280;48765;51.568;8.840;2022-10-31T01:19:18;98969.66;;;10.01;100.00
21633;BME280;48765;51.568;8.840;2022-10-31T01:21:45;98971.31;;;9.75;100.00
21633;BME280;48765;51.568;8.840;2022-10-31T01:24:12;98977.56;;;9.92;100.00
21633;BME280;48765;51.568;8.840;2022-10-31T01:26:38;98977.56;;;9.90;100.00
21633;BME280;48765;51.568;8.840;2022-10-31T01:29:07;98981.97;;;9.90;100.00
21633;BME280;48765;51.568;8.840;2022-10-31T01:31:34;98974.03;;;9.94;100.00
21633;BME280;48765;51.568;8.840;2022-10-31T01:34:02;98969.66;;;9.98;100.00
21633;BME280;48765;51.568;8.840;2022-10-31T01:36:29;98971.44;;;9.97;100.00
21633;BME280;48765;51.568;8.840;2022-10-31T01:38:57;98976.69;;;9.90;100.00
21633;BME280;48765;51.568;8.840;2022-10-31T01:41:25;98970.59;;;10.14;100.00
21633;BME280;48765;51.568;8.840;2022-10-31T01:43:53;98975.06;;;10.29;100.00
21633;BME280;48765;51.568;8.840;2022-10-31T01:46:23;98973.25;;;10.17;100.00
21633;BME280;48765;51.568;8.840;2022-10-31T01:48:51;98968.84;;;10.22;100.00
21633;BME280;48765;51.568;8.840;2022-10-31T01:51:19;98972.44;;;10.32;100.00
21633;BME280;48765;51.568;8.840;2022-10-31T01:53:47;98973.34;;;10.47;100.00
21633;BME280;48765;51.568;8.840;2022-10-31T01:56:14;98971.59;;;10.49;100.00
21633;BME280;48765;51.568;8.840;2022-10-31T01:58:42;98975.13;;;10.52;100.00
21633;BME280;48765;51.568;8.840;2022-10-31T02:01:10;98969.84;;;10.61;100.00
21633;BME280;48765;51.568;8.840;2022-10-31T02:03:40;98984.84;;;10.46;100.00
21633;BME280;48765;51.568;8.840;2022-10-31T02:06:08;98976.00;;;10.63;100.00
21633;BME280;48765;51.568;8.840;2022-10-31T02:08:39;98977.78;;;10.45;100.00
21633;BME280;48765;51.568;8.840;2022-10-31T02:11:07;98977.72;;;10.27;100.00
21633;BME280;48765;51.568;8.840;2022-10-31T02:13:34;98976.84;;;10.34;100.00
21633;BME280;48765;51.568;8.840;2022-10-31T02:16:01;98975.06;;;10.24;100.00
21633;BME280;48765;51.568;8.840;2022-10-31T02:18:28;98974.09;;;10.08;100.00
21633;BME280;48765;51.568;8.840;2022-10-31T02:21:00;98968.88;;;10.34;100.00
21633;BME280;48765;51.568;8.840;2022-10-31T02:23:51;98975.09;;;10.32;100.00
21633;BME280;48765;51.568;8.840;2022-10-31T02:26:27;98966.16;;;10.14;100.00
21633;BME280;48765;51.568;8.840;2022-10-31T02:29:04;98971.41;;;10.01;100.00
21633;BME280;48765;51.568;8.840;2022-10-31T02:31:39;98975.88;;;10.20;100.00
21633;BME280;48765;51.568;8.840;2022-10-31T02:34:11;98963.53;;;10.19;100.00
21633;BME280;48765;51.568;8.840;2022-10-31T02:36:42;98965.31;;;10.17;100.00
21633;BME280;48765;51.568;8.840;2022-10-31T02:39:12;98973.22;;;10.15;100.00
21633;BME280;48765;51.568;8.840;2022-10-31T02:41:44;98965.34;;;10.28;100.00
21633;BME280;48765;51.568;8.840;2022-10-31T02:44:15;98966.25;;;10.28;100.00
21633;BME280;48765;51.568;8.840;2022-10-31T02:46:47;98964.47;;;10.29;100.00
21633;BME280;48765;51.568;8.840;2022-10-31T02:49:16;98964.50;;;10.41;100.00
21633;BME280;48765;51.568;8.840;2022-10-31T02:51:45;98967.13;;;10.27;100.00
21633;BME280;48765;51.568;8.840;2022-10-31T02:54:18;98972.44;;;10.39;100.00
21633;BME280;48765;51.568;8.840;2022-10-31T02:56:46;98983.03;;;10.33;100.00
21633;BME280;48765;51.568;8.840;2022-10-31T02:59:14;98968.94;;;10.45;100.00
21633;BME280;48765;51.568;8.840;2022-10-31T03:01:53;98964.53;;;10.61;100.00
21633;BME280;48765;51.568;8.840;2022-10-31T03:04:29;98978.66;;;10.44;100.00
21633;BME280;48765;51.568;8.840;2022-10-31T03:07:00;98979.53;;;10.45;100.00
21633;BME280;48765;51.568;8.840;2022-10-31T03:09:32;98986.66;;;10.75;100.00
21633;BME280;48765;51.568;8.840;2022-10-31T03:12:02;98991.94;;;10.90;100.00
21633;BME280;48765;51.568;8.840;2022-10-31T03:14:32;98999.91;;;10.99;100.00
21633;BME280;48765;51.568;8.840;2022-10-31T03:17:05;98995.50;;;10.83;100.00
21633;BME280;48765;51.568;8.840;2022-10-31T03:19:33;98990.16;;;10.77;100.00
21633;BME280;48765;51.568;8.840;2022-10-31T03:22:02;98998.09;;;10.68;100.00
21633;BME280;48765;51.568;8.840;2022-10-31T03:24:31;98993.72;;;10.79;100.00
21633;BME280;48765;51.568;8.840;2022-10-31T03:27:00;98986.66;;;10.87;100.00
21633;BME280;48765;51.568;8.840;2022-10-31T03:29:28;98988.41;;;10.91;100.00
21633;BME280;48765;51.568;8.840;2022-10-31T03:31:58;98983.13;;;10.88;100.00
21633;BME280;48765;51.568;8.840;2022-10-31T03:34:27;98987.53;;;10.85;100.00
21633;BME280;48765;51.568;8.840;2022-10-31T03:36:56;98984.84;;;10.68;100.00
21633;BME280;48765;51.568;8.840;2022-10-31T03:39:23;98983.13;;;10.82;100.00
21633;BME280;48765;51.568;8.840;2022-10-31T03:41:52;98988.41;;;10.73;100.00
21633;BME280;48765;51.568;8.840;2022-10-31T03:44:20;98987.53;;;10.91;100.00
21633;BME280;48765;51.568;8.840;2022-10-31T03:46:49;98986.66;;;10.84;100.00
21633;BME280;48765;51.568;8.840;2022-10-31T03:49:16;98984.00;;;10.80;100.00
21633;BME280;48765;51.568;8.840;2022-10-31T03:51:45;98984.88;;;10.63;100.00
21633;BME280;48765;51.568;8.840;2022-10-31T03:54:15;98987.50;;;10.45;100.00
21633;BME280;48765;51.568;8.840;2022-10-31T03:56:47;98977.72;;;10.27;100.00
21633;BME280;48765;51.568;8.840;2022-10-31T03:59:17;98981.28;;;10.41;100.00
21633;BME280;48765;51.568;8.840;2022-10-31T04:01:46;98973.34;;;10.49;100.00
21633;BME280;48765;51.568;8.840;2022-10-31T04:04:14;98988.38;;;10.58;100.00
21633;BME280;48765;51.568;8.840;2022-10-31T04:06:41;98983.06;;;10.45;100.00
21633;BME280;48765;51.568;8.840;2022-10-31T04:09:10;98991.00;;;10.48;100.00
21633;BME280;48765;51.568;8.840;2022-10-31T04:11:40;98986.56;;;10.26;100.00
21633;BME280;48765;51.568;8.840;2022-10-31T04:14:08;98987.47;;;10.40;100.00
21633;BME280;48765;51.568;8.840;2022-10-31T04:16:38;98995.44;;;10.46;100.00
21633;BME280;48765;51.568;8.840;2022-10-31T04:19:05;98995.47;;;10.49;100.00
21633;BME280;48765;51.568;8.840;2022-10-31T04:21:32;98994.47;;;10.24;100.00
21633;BME280;48765;51.568;8.840;2022-10-31T04:23:59;98995.25;;;10.07;100.00
21633;BME280;48765;51.568;8.840;2022-10-31T04:26:27;98990.94;;;10.21;100.00
21633;BME280;48765;51.568;8.840;2022-10-31T04:28:54;98991.75;;;10.11;100.00
21633;BME280;48765;51.568;8.840;2022-10-31T04:31:20;98993.56;;;10.18;100.00
21633;BME280;48765;51.568;8.840;2022-10-31T04:33:47;99007.66;;;10.08;100.00
21633;BME280;48765;51.568;8.840;2022-10-31T04:36:15;99000.56;;;10.02;100.00
21633;BME280;48765;51.568;8.840;2022-10-31T04:38:41;99008.47;;;9.96;100.00
21633;BME280;48765;51.568;8.840;2022-10-31T04:41:08;99009.31;;;9.84;100.00
21633;BME280;48765;51.568;8.840;2022-10-31T04:43:36;99007.56;;;9.86;100.00
21633;BME280;48765;51.568;8.840;2022-10-31T04:46:03;99010.16;;;9.83;100.00
21633;BME280;48765;51.568;8.840;2022-10-31T04:48:30;99022.50;;;9.75;100.00
21633;BME280;48765;51.568;8.840;2022-10-31T04:51:00;99018.13;;;9.79;100.00
21633;BME280;48765;51.568;8.840;2022-10-31T04:53:27;99012.84;;;9.85;100.00
21633;BME280;48765;51.568;8.840;2022-10-31T04:55:54;99004.09;;;10.04;100.00
21633;BME280;48765;51.568;8.840;2022-10-31T04:58:21;99013.63;;;9.67;100.00
21633;BME280;48765;51.568;8.840;2022-10-31T05:00:52;99006.53;;;9.55;100.00
21633;BME280;48765;51.568;8.840;2022-10-31T05:03:19;98998.59;;;9.60;100.00
21633;BME280;48765;51.568;8.840;2022-10-31T05:05:46;98997.72;;;9.62;100.00
21633;BME280;48765;51.568;8.840;2022-10-31T05:08:13;98994.25;;;9.72;100.00
21633;BME280;48765;51.568;8.840;2022-10-31T05:10:40;98995.13;;;9.73;100.00
21633;BME280;48765;51.568;8.840;2022-10-31T05:13:07;98996.97;;;9.86;100.00
21633;BME280;48765;51.568;8.840;2022-10-31T05:15:34;98998.59;;;9.63;100.00
21633;BME280;48765;51.568;8.840;2022-10-31T05:18:02;98998.59;;;9.63;100.00
21633;BME280;48765;51.568;8.840;2022-10-31T05:20:30;98987.22;;;9.79;100.00
21633;BME280;48765;51.568;8.840;2022-10-31T05:22:57;98999.50;;;9.62;100.00
21633;BME280;48765;51.568;8.840;2022-10-31T05:25:26;98989.84;;;9.70;100.00
21633;BME280;48765;51.568;8.840;2022-10-31T05:27:53;98985.41;;;9.67;100.00
21633;BME280;48765;51.568;8.840;2022-10-31T05:30:20;98995.06;;;9.64;100.00
21633;BME280;48765;51.568;8.840;2022-10-31T05:32:48;98991.41;;;9.37;100.00
21633;BME280;48765;51.568;8.840;2022-10-31T05:35:18;98991.44;;;9.43;100.00
21633;BME280;48765;51.568;8.840;2022-10-31T05:37:45;98991.44;;;9.43;100.00
21633;BME280;48765;51.568;8.840;2022-10-31T05:40:12;98991.34;;;9.30;100.00
21633;BME280;48765;51.568;8.840;2022-10-31T05:42:39;99005.38;;;9.21;100.00
21633;BME280;48765;51.568;8.840;2022-10-31T05:45:07;99001.00;;;9.26;100.00
21633;BME280;48765;51.568;8.840;2022-10-31T05:47:34;99000.13;;;9.26;100.00
21633;BME280;48765;51.568;8.840;2022-10-31T05:50:01;99001.16;;;9.49;100.00
21633;BME280;48765;51.568;8.840;2022-10-31T05:52:29;98991.44;;;9.43;100.00
21633;BME280;48765;51.568;8.840;2022-10-31T05:54:55;98995.63;;;9.09;100.00
21633;BME280;48765;51.568;8.840;2022-10-31T05:57:22;98995.63;;;9.11;100.00
21633;BME280;48765;51.568;8.840;2022-10-31T05:59:49;98990.25;;;9.02;100.00
21633;BME280;48765;51.568;8.840;2022-10-31T06:02:18;99000.16;;;9.27;100.00
21633;BME280;48765;51.568;8.840;2022-10-31T06:04:44;98993.16;;;9.38;100.00
21633;BME280;48765;51.568;8.840;2022-10-31T06:07:11;98996.63;;;9.28;100.00
21633;BME280;48765;51.568;8.840;2022-10-31T06:09:40;98988.59;;;9.13;100.00
21633;BME280;48765;51.568;8.840;2022-10-31T06:12:07;98984.16;;;9.10;100.00
21633;BME280;48765;51.568;8.840;2022-10-31T06:14:33;98984.22;;;9.18;100.00
21633;BME280;48765;51.568;8.840;2022-10-31T06:17:00;98976.28;;;9.19;100.00
21633;BME280;48765;51.568;8.840;2022-10-31T06:19:27;98971.97;;;9.32;100.00
21633;BME280;48765;51.568;8.840;2022-10-31T06:21:54;98973.78;;;9.45;100.00
21633;BME280;48765;51.568;8.840;2022-10-31T06:24:20;98971.81;;;9.11;100.00
21633;BME280;48765;51.568;8.840;2022-10-31T06:26:49;98974.31;;;8.91;100.00
21633;BME280;48765;51.568;8.840;2022-10-31T06:29:15;98983.13;;;8.91;100.00
21633;BME280;48765;51.568;8.840;2022-10-31T06:31:42;98990.19;;;8.92;100.00
21633;BME280;48765;51.568;8.840;2022-10-31T06:34:09;98990.19;;;8.91;100.00
21633;BME280;48765;51.568;8.840;2022-10-31T06:36:36;98990.28;;;9.06;100.00
21633;BME280;48765;51.568;8.840;2022-10-31T06:39:02;98993.81;;;9.07;100.00
21633;BME280;48765;51.568;8.840;2022-10-31T06:41:29;98999.19;;;9.13;100.00
21633;BME280;48765;51.568;8.840;2022-10-31T06:43:58;98989.50;;;9.21;100.00
21633;BME280;48765;51.568;8.840;2022-10-31T06:46:24;98977.22;;;9.29;100.00
21633;BME280;48765;51.568;8.840;2022-10-31T06:48:51;98990.44;;;9.23;100.00
21633;BME280;48765;51.568;8.840;2022-10-31T06:51:18;98993.00;;;9.15;100.00
21633;BME280;48765;51.568;8.840;2022-10-31T06:53:45;98994.81;;;9.18;100.00
21633;BME280;48765;51.568;8.840;2022-10-31T06:56:11;98994.03;;;9.33;100.00
21633;BME280;48765;51.568;8.840;2022-10-31T06:58:38;99001.13;;;9.41;100.00
21633;BME280;48765;51.568;8.840;2022-10-31T07:01:06;99003.78;;;9.41;100.00
21633;BME280;48765;51.568;8.840;2022-10-31T07:03:33;99000.13;;;9.24;100.00
21633;BME280;48765;51.568;8.840;2022-10-31T07:06:00;99006.16;;;9.05;100.00
21633;BME280;48765;51.568;8.840;2022-10-31T07:08:27;99008.94;;;9.23;100.00
21633;BME280;48765;51.568;8.840;2022-10-31T07:10:55;99010.81;;;9.39;100.00
21633;BME280;48765;51.568;8.840;2022-10-31T07:13:22;99011.72;;;9.43;100.00
21633;BME280;48765;51.568;8.840;2022-10-31T07:15:50;99003.91;;;9.60;100.00
21633;BME280;48765;51.568;8.840;2022-10-31T07:18:19;99002.06;;;9.46;100.00
21633;BME280;48765;51.568;8.840;2022-10-31T07:20:46;98998.50;;;9.43;100.00
21633;BME280;48765;51.568;8.840;2022-10-31T07:23:14;99001.22;;;9.58;100.00
21633;BME280;48765;51.568;8.840;2022-10-31T07:25:41;99002.09;;;9.59;100.00
21633;BME280;48765;51.568;8.840;2022-10-31T07:28:08;99006.59;;;9.73;100.00
21633;BME280;48765;51.568;8.840;2022-10-31T07:30:35;98988.13;;;9.84;100.00
21633;BME280;48765;51.568;8.840;2022-10-31T07:33:02;98997.06;;;10.08;100.00
21633;BME280;48765;51.568;8.840;2022-10-31T07:35:31;98992.63;;;10.07;100.00
21633;BME280;48765;51.568;8.840;2022-10-31T07:38:06;98984.66;;;10.07;100.00
21633;BME280;48765;51.568;8.840;2022-10-31T07:40:33;98987.31;;;10.05;100.00
21633;BME280;48765;51.568;8.840;2022-10-31T07:43:00;98973.22;;;10.11;100.00
21633;BME280;48765;51.568;8.840;2022-10-31T07:45:27;98990.91;;;10.18;100.00
21633;BME280;48765;51.568;8.840;2022-10-31T07:47:54;98994.53;;;10.31;100.00
21633;BME280;48765;51.568;8.840;2022-10-31T07:50:21;98997.16;;;10.29;100.00
21633;BME280;48765;51.568;8.840;2022-10-31T07:52:57;98993.66;;;10.41;100.00
21633;BME280;48765;51.568;8.840;2022-10-31T07:55:24;98993.66;;;10.44;100.00
21633;BME280;48765;51.568;8.840;2022-10-31T07:57:55;98985.75;;;10.70;100.00
21633;BME280;48765;51.568;8.840;2022-10-31T08:00:21;98982.22;;;10.86;100.00
21633;BME280;48765;51.568;8.840;2022-10-31T08:02:48;98990.19;;;10.98;100.00
21633;BME280;48765;51.568;8.840;2022-10-31T08:05:22;98987.53;;;11.09;100.00
21633;BME280;48765;51.568;8.840;2022-10-31T08:07:50;98995.50;;;11.20;100.00
21633;BME280;48765;51.568;8.840;2022-10-31T08:10:17;98986.66;;;11.21;100.00
21633;BME280;48765;51.568;8.840;2022-10-31T08:12:43;98991.94;;;11.27;100.00
21633;BME280;48765;51.568;8.840;2022-10-31T08:15:10;98986.63;;;11.48;100.00
21633;BME280;48765;51.568;8.840;2022-10-31T08:17:37;98985.69;;;11.57;100.00
21633;BME280;48765;51.568;8.840;2022-10-31T08:20:04;98983.91;;;11.67;100.00
21633;BME280;48765;51.568;8.840;2022-10-31T08:22:31;98984.75;;;11.78;100.00
21633;BME280;48765;51.568;8.840;2022-10-31T08:25:00;98979.41;;;11.96;100.00
21633;BME280;48765;51.568;8.840;2022-10-31T08:27:27;98980.16;;;12.21;100.00
21633;BME280;48765;51.568;8.840;2022-10-31T08:29:53;98979.25;;;12.33;100.00
21633;BME280;48765;51.568;8.840;2022-10-31T08:32:20;98979.16;;;12.48;100.00
21633;BME280;48765;51.568;8.840;2022-10-31T08:34:47;98979.03;;;12.67;100.00
21633;BME280;48765;51.568;8.840;2022-10-31T08:37:14;98974.50;;;12.78;100.00
21633;BME280;48765;51.568;8.840;2022-10-31T08:39:45;98977.00;;;12.99;100.00
21633;BME280;48765;51.568;8.840;2022-10-31T08:42:14;98978.56;;;13.28;100.00
21633;BME280;48765;51.568;8.840;2022-10-31T08:44:40;98968.59;;;13.48;100.00
21633;BME280;48765;51.568;8.840;2022-10-31T08:47:07;98966.66;;;13.63;100.00
21633;BME280;48765;51.568;8.840;2022-10-31T08:49:34;98970.94;;;13.79;100.00
21633;BME280;48765;51.568;8.840;2022-10-31T08:52:01;98969.09;;;13.84;100.00
21633;BME280;48765;51.568;8.840;2022-10-31T08:54:28;98972.53;;;13.94;100.00
21633;BME280;48765;51.568;8.840;2022-10-31T08:56:54;98963.44;;;14.09;100.00
21633;BME280;48765;51.568;8.840;2022-10-31T08:59:23;98961.56;;;14.17;100.00
21633;BME280;48765;51.568;8.840;2022-10-31T09:01:50;98954.31;;;14.28;100.00
21633;BME280;48765;51.568;8.840;2022-10-31T09:04:16;98964.94;;;14.31;100.00
21633;BME280;48765;51.568;8.840;2022-10-31T09:06:43;98953.19;;;14.43;100.00
21633;BME280;48765;51.568;8.840;2022-10-31T09:09:10;98954.13;;;14.40;100.00
21633;BME280;48765;51.568;8.840;2022-10-31T09:11:37;98955.84;;;14.44;100.00
21633;BME280;48765;51.568;8.840;2022-10-31T09:14:04;98946.84;;;14.54;100.00
21633;BME280;48765;51.568;8.840;2022-10-31T09:16:32;98946.78;;;14.59;100.00
21633;BME280;48765;51.568;8.840;2022-10-31T09:18:59;98943.97;;;14.67;100.00
21633;BME280;48765;51.568;8.840;2022-10-31T09:21:26;98944.84;;;14.69;100.00
21633;BME280;48765;51.568;8.840;2022-10-31T09:23:52;98948.31;;;14.74;100.00
21633;BME280;48765;51.568;8.840;2022-10-31T09:26:19;98944.56;;;14.87;100.00
21633;BME280;48765;51.568;8.840;2022-10-31T09:28:46;98944.53;;;14.89;100.00
21633;BME280;48765;51.568;8.840;2022-10-31T09:31:13;98943.50;;;14.97;100.00
21633;BME280;48765;51.568;8.840;2022-10-31T09:33:41;98941.63;;;15.02;100.00
21633;BME280;48765;51.568;8.840;2022-10-31T09:36:08;98937.09;;;15.07;100.00
21633;BME280;48765;51.568;8.840;2022-10-31T09:38:35;98938.81;;;15.12;100.00
21633;BME280;48765;51.568;8.840;2022-10-31T09:41:05;98945.84;;;15.16;100.00
21633;BME280;48765;51.568;8.840;2022-10-31T09:43:36;98940.34;;;15.25;100.00
21633;BME280;48765;51.568;8.840;2022-10-31T09:46:10;98940.19;;;15.34;100.00
21633;BME280;48765;51.568;8.840;2022-10-31T09:48:45;98948.16;;;15.36;100.00
21633;BME280;48765;51.568;8.840;2022-10-31T09:51:16;98949.00;;;15.39;100.00
21633;BME280;48765;51.568;8.840;2022-10-31T09:53:46;98944.50;;;15.41;100.00
21633;BME280;48765;51.568;8.840;2022-10-31T09:56:15;98939.03;;;15.47;100.00
21633;BME280;48765;51.568;8.840;2022-10-31T09:58:44;98941.69;;;15.47;100.00
21633;BME280;48765;51.568;8.840;2022-10-31T10:01:17;98945.91;;;15.60;100.00
21633;BME280;48765;51.568;8.840;2022-10-31T10:03:49;98937.97;;;15.57;100.00
21633;BME280;48765;51.568;8.840;2022-10-31T10:06:18;98944.19;;;15.56;100.00
21633;BME280;48765;51.568;8.840;2022-10-31T10:08:46;98937.16;;;15.52;100.00
21633;BME280;48765;51.568;8.840;2022-10-31T10:11:17;98931.97;;;15.45;100.00
21633;BME280;48765;51.568;8.840;2022-10-31T10:13:51;98938.94;;;15.52;100.00
21633;BME280;48765;51.568;8.840;2022-10-31T10:16:24;98933.66;;;15.49;100.00
21633;BME280;48765;51.568;8.840;2022-10-31T10:19:02;98939.78;;;15.55;100.00
21633;BME280;48765;51.568;8.840;2022-10-31T10:21:36;98943.22;;;15.64;100.00
21633;BME280;48765;51.568;8.840;2022-10-31T10:24:23;98944.03;;;15.67;100.00
21633;BME280;48765;51.568;8.840;2022-10-31T10:26:53;98940.31;;;15.74;100.00
21633;BME280;48765;51.568;8.840;2022-10-31T10:29:28;98939.41;;;15.77;100.00
21633;BME280;48765;51.568;8.840;2022-10-31T10:31:57;98939.44;;;15.74;100.00
21633;BME280;48765;51.568;8.840;2022-10-31T10:34:28;98928.72;;;15.77;100.00
21633;BME280;48765;51.568;8.840;2022-10-31T10:36:56;98933.97;;;15.80;100.00
21633;BME280;48765;51.568;8.840;2022-10-31T10:39:25;98919.91;;;15.72;100.00
21633;BME280;48765;51.568;8.840;2022-10-31T10:41:53;98915.25;;;15.81;100.00
21633;BME280;48765;51.568;8.840;2022-10-31T10:44:40;98923.03;;;15.92;100.00
21633;BME280;48765;51.568;8.840;2022-10-31T10:47:28;98914.72;;;16.06;100.00
21633;BME280;48765;51.568;8.840;2022-10-31T10:50:06;98908.81;;;15.90;100.00
21633;BME280;48765;51.568;8.840;2022-10-31T10:52:36;98905.13;;;15.96;100.00
21633;BME280;48765;51.568;8.840;2022-10-31T10:55:09;98902.31;;;16.02;100.00
21633;BME280;48765;51.568;8.840;2022-10-31T10:57:42;98897.03;;;16.00;100.00
21633;BME280;48765;51.568;8.840;2022-10-31T11:00:19;98893.13;;;16.14;100.00
21633;BME280;48765;51.568;8.840;2022-10-31T11:02:46;98889.47;;;16.18;100.00
21633;BME280;48765;51.568;8.840;2022-10-31T11:05:18;98884.06;;;16.21;100.00
21633;BME280;48765;51.568;8.840;2022-10-31T11:07:46;98888.75;;;16.11;100.00
21633;BME280;48765;51.568;8.840;2022-10-31T11:10:14;98887.88;;;16.10;100.00
21633;BME280;48765;51.568;8.840;2022-10-31T11:12:41;98886.59;;;16.27;100.00
21633;BME280;48765;51.568;8.840;2022-10-31T11:15:17;98878.41;;;16.34;100.00
21633;BME280;48765;51.568;8.840;2022-10-31T11:17:47;98882.78;;;16.37;100.00
21633;BME280;48765;51.568;8.840;2022-10-31T11:20:25;98875.56;;;16.42;100.00
21633;BME280;48765;51.568;8.840;2022-10-31T11:23:00;98868.31;;;16.47;100.00
21633;BME280;48765;51.568;8.840;2022-10-31T11:25:27;98868.44;;;16.41;100.00
21633;BME280;48765;51.568;8.840;2022-10-31T11:28:01;98866.63;;;16.43;100.00
21633;BME280;48765;51.568;8.840;2022-10-31T11:30:28;98857.72;;;16.41;100.00
21633;BME280;48765;51.568;8.840;2022-10-31T11:32:56;98855.81;;;16.46;100.00
21633;BME280;48765;51.568;8.840;2022-10-31T11:35:24;98857.78;;;16.40;100.00
21633;BME280;48765;51.568;8.840;2022-10-31T11:37:52;98857.66;;;16.44;100.00
21633;BME280;48765;51.568;8.840;2022-10-31T11:40:20;98849.41;;;16.53;100.00
21633;BME280;48765;51.568;8.840;2022-10-31T11:42:49;98859.03;;;16.60;100.00
21633;BME280;48765;51.568;8.840;2022-10-31T11:45:17;98848.31;;;16.62;100.00
21633;BME280;48765;51.568;8.840;2022-10-31T11:47:46;98839.25;;;16.68;100.00
21633;BME280;48765;51.568;8.840;2022-10-31T11:50:18;98834.72;;;16.70;100.00
21633;BME280;48765;51.568;8.840;2022-10-31T11:52:47;98832.75;;;16.78;100.00
21633;BME280;48765;51.568;8.840;2022-10-31T11:55:15;98826.47;;;16.79;100.00
21633;BME280;48765;51.568;8.840;2022-10-31T11:57:43;98815.88;;;16.76;100.00
21633;BME280;48765;51.568;8.840;2022-10-31T12:00:19;98815.94;;;16.73;100.00
21633;BME280;48765;51.568;8.840;2022-10-31T12:02:46;98803.88;;;16.91;100.00
21633;BME280;48765;51.568;8.840;2022-10-31T12:05:17;98804.81;;;16.88;100.00
21633;BME280;48765;51.568;8.840;2022-10-31T12:07:46;98799.91;;;16.70;100.00
21633;BME280;48765;51.568;8.840;2022-10-31T12:10:14;98800.63;;;16.78;100.00
21633;BME280;48765;51.568;8.840;2022-10-31T12:12:45;98801.63;;;16.74;100.00
21633;BME280;48765;51.568;8.840;2022-10-31T12:17:58;98787.13;;;16.82;100.00
21633;BME280;48765;51.568;8.840;2022-10-31T12:20:32;98790.72;;;16.81;100.00
21633;BME280;48765;51.568;8.840;2022-10-31T12:23:06;98783.66;;;16.79;100.00
21633;BME280;48765;51.568;8.840;2022-10-31T12:25:39;98777.81;;;16.97;100.00
21633;BME280;48765;51.568;8.840;2022-10-31T12:28:14;98772.88;;;16.82;100.00
21633;BME280;48765;51.568;8.840;2022-10-31T12:30:50;98768.25;;;16.87;100.00
21633;BME280;48765;51.568;8.840;2022-10-31T12:33:31;98763.53;;;16.97;100.00
21633;BME280;48765;51.568;8.840;2022-10-31T12:36:07;98758.97;;;17.00;100.00
21633;BME280;48765;51.568;8.840;2022-10-31T12:38:41;98751.13;;;16.94;100.00
21633;BME280;48765;51.568;8.840;2022-10-31T12:41:19;98746.41;;;17.02;100.00
21633;BME280;48765;51.568;8.840;2022-10-31T12:43:50;98745.25;;;17.13;100.00
21633;BME280;48765;51.568;8.840;2022-10-31T12:46:24;98734.44;;;17.16;100.00
21633;BME280;48765;51.568;8.840;2022-10-31T12:51:36;98730.13;;;17.10;100.00
21633;BME280;48765;51.568;8.840;2022-10-31T12:54:15;98727.25;;;17.18;100.00
21633;BME280;48765;51.568;8.840;2022-10-31T12:56:47;98713.75;;;17.21;100.00
21633;BME280;48765;51.568;8.840;2022-10-31T12:59:20;98714.59;;;17.23;100.00
21633;BME280;48765;51.568;8.840;2022-10-31T13:01:49;98717.91;;;17.31;100.00
21633;BME280;48765;51.568;8.840;2022-10-31T13:04:18;98701.88;;;17.29;100.00
21633;BME280;48765;51.568;8.840;2022-10-31T13:06:47;98701.22;;;17.21;100.00
21633;BME280;48765;51.568;8.840;2022-10-31T13:09:17;98703.59;;;17.32;100.00